Time;durP1;ratioP1;P1;durP2;ratioP2;P2;SDS_P1;SDS_P2;PMS_P1;PMS_P2;Temp;Humidity;BMP_temperature;BMP_pressure;BME280_temperature;BME280_humidity;BME280_pressure;Samples;Min_cycle;Max_cycle;Signal;HPM_P1;HPM_P2
2022/01/10 00:02:24;;;;;;;72.88;28.80;;;;;;;9.65;90.76;98535.56;5056675;28;20105;-80
2022/01/10 00:04:50;;;;;;;71.57;30.35;;;;;;;9.69;89.82;98536.84;5044574;28;20074;-80
2022/01/10 00:07:16;;;;;;;77.90;31.02;;;;;;;9.73;90.15;98537.28;5048506;28;20319;-80
2022/01/10 00:09:41;;;;;;;67.75;30.33;;;;;;;9.79;89.66;98533.91;5045916;28;20064;-76
2022/01/10 00:12:07;;;;;;;69.80;29.40;;;;;;;9.76;89.38;98521.06;5056119;28;20033;-75
2022/01/10 00:14:33;;;;;;;81.90;31.45;;;;;;;9.83;88.17;98525.41;5054292;28;20049;-81
2022/01/10 00:16:58;;;;;;;74.75;29.58;;;;;;;9.65;88.97;98525.00;5054894;28;20091;-80
2022/01/10 00:19:24;;;;;;;73.00;28.73;;;;;;;8.94;91.63;98489.53;5053401;28;20036;-75
2022/01/10 00:21:50;;;;;;;75.95;30.45;;;;;;;8.89;93.20;98529.66;5042650;28;20075;-81
2022/01/10 00:24:15;;;;;;;71.78;29.80;;;;;;;9.01;93.96;98527.41;5042852;28;20436;-80
2022/01/10 00:26:41;;;;;;;70.15;28.58;;;;;;;8.93;93.51;98522.22;5046188;28;20029;-80
2022/01/10 00:29:06;;;;;;;66.95;28.33;;;;;;;8.86;93.81;98510.72;5055852;28;20021;-75
2022/01/10 00:31:32;;;;;;;68.47;29.20;;;;;;;8.83;94.25;98519.84;5055814;28;20029;-76
2022/01/10 00:33:57;;;;;;;73.03;28.30;;;;;;;8.82;94.83;98520.00;5050256;28;20068;-80
2022/01/10 00:36:23;;;;;;;67.43;29.05;;;;;;;8.84;95.97;98521.47;5050947;28;20112;-80
2022/01/10 00:38:49;;;;;;;71.07;28.75;;;;;;;8.98;95.40;98516.38;5048643;28;20203;-80
2022/01/10 00:41:14;;;;;;;62.83;26.75;;;;;;;9.15;94.74;98526.59;5044929;28;20269;-80
2022/01/10 00:43:45;;;;;;;62.28;27.05;;;;;;;9.21;94.37;98528.50;5042812;28;20017;-75
2022/01/10 00:46:11;;;;;;;69.30;29.92;;;;;;;9.37;93.35;98519.59;5043611;28;20212;-76
2022/01/10 00:48:36;;;;;;;66.10;27.40;;;;;;;9.43;92.02;98505.63;5050380;28;20025;-81
2022/01/10 00:51:02;;;;;;;67.63;28.55;;;;;;;9.62;91.40;98517.44;5048243;28;20034;-75
2022/01/10 00:53:27;;;;;;;61.97;27.10;;;;;;;9.72;90.19;98507.41;5042521;28;20036;-77
2022/01/10 00:55:53;;;;;;;59.65;25.58;;;;;;;9.74;88.67;98502.75;5044029;28;20064;-80
2022/01/10 00:58:18;;;;;;;62.03;27.40;;;;;;;9.50;89.50;98500.44;5043087;28;20100;-80
2022/01/10 01:00:44;;;;;;;58.15;25.20;;;;;;;9.27;91.15;98509.28;5043606;28;20033;-80
2022/01/10 01:03:10;;;;;;;54.22;23.30;;;;;;;9.27;91.18;98501.34;5044324;28;20036;-80
2022/01/10 01:05:40;;;;;;;56.22;25.15;;;;;;;9.37;91.47;98511.66;5044122;28;20033;-75
2022/01/10 01:08:07;;;;;;;55.60;25.67;;;;;;;9.32;92.01;98502.63;5045234;28;20033;-80
2022/01/10 01:13:09;;;;;;;51.83;23.05;;;;;;;9.33;90.81;98494.50;5042196;28;20029;-80
2022/01/10 01:15:45;;;;;;;54.33;24.00;;;;;;;9.20;91.37;98487.22;5044834;28;20017;-75
2022/01/10 01:18:32;;;;;;;57.70;25.33;;;;;;;9.17;92.42;98484.97;5044274;28;20033;-76
2022/01/10 01:26:25;;;;;;;68.45;26.15;;;;;;;8.84;94.36;98479.25;5043026;28;20121;-75
2022/01/10 01:28:51;;;;;;;66.38;27.67;;;;;;;8.85;94.79;98462.41;5042062;28;20025;-80
2022/01/10 01:31:16;;;;;;;68.95;28.13;;;;;;;8.82;95.90;98449.56;5049930;28;20029;-80
2022/01/10 01:33:42;;;;;;;64.15;26.77;;;;;;;9.05;93.79;98454.75;5049588;28;20021;-80
2022/01/10 01:36:08;;;;;;;64.47;26.60;;;;;;;9.07;92.71;98455.38;5055352;28;20060;-80
2022/01/10 01:38:34;;;;;;;72.47;28.35;;;;;;;8.79;93.78;98435.91;5049456;28;20035;-80
2022/01/10 01:41:17;;;;;;;64.40;27.38;;;;;;;8.82;94.93;98456.66;5046067;28;20025;-75
2022/01/10 01:43:43;;;;;;;67.75;26.92;;;;;;;8.74;94.79;98452.28;5043283;28;20026;-80
2022/01/10 01:46:09;;;;;;;67.03;25.52;;;;;;;8.52;95.93;98442.63;5041855;28;20025;-81
2022/01/10 01:48:35;;;;;;;70.07;26.27;;;;;;;8.59;96.28;98457.56;5058582;28;20254;-75
2022/01/10 01:51:02;;;;;;;69.97;27.80;;;;;;;8.40;96.79;98444.09;5060222;28;20079;-75
2022/01/10 01:53:27;;;;;;;66.05;25.67;;;;;;;8.39;98.35;98453.81;5062745;28;20028;-80
2022/01/10 01:55:53;;;;;;;69.07;26.33;;;;;;;8.34;98.02;98442.16;5057037;28;20060;-80
2022/01/10 01:58:18;;;;;;;73.85;27.52;;;;;;;8.44;98.84;98455.91;5041103;28;20053;-80
2022/01/10 02:00:44;;;;;;;76.47;27.10;;;;;;;8.55;97.71;98451.00;5042127;28;20033;-75
2022/01/10 02:03:09;;;;;;;81.10;28.45;;;;;;;8.68;96.72;98449.56;5046168;28;20037;-75
2022/01/10 02:05:35;;;;;;;65.53;24.13;;;;;;;8.68;95.76;98445.09;5044260;28;20136;-80
2022/01/10 02:08:00;;;;;;;68.28;26.67;;;;;;;8.72;96.22;98450.84;5040160;28;20053;-80
2022/01/10 02:10:26;;;;;;;68.90;27.50;;;;;;;8.67;97.09;98450.56;5054341;28;20025;-80
2022/01/10 02:12:52;;;;;;;67.40;26.02;;;;;;;8.60;96.80;98453.09;5060759;28;20266;-80
2022/01/10 02:15:36;;;;;;;73.20;27.10;;;;;;;8.45;97.61;98450.44;5047040;28;20033;-75
2022/01/10 02:18:03;;;;;;;71.43;28.00;;;;;;;8.49;98.31;98462.28;5061637;28;20398;-75
2022/01/10 02:20:31;;;;;;;72.63;27.17;;;;;;;8.66;98.19;98454.19;5061700;28;20037;-81
2022/01/10 02:22:56;;;;;;;65.75;25.95;;;;;;;8.62;96.82;98459.84;5046828;28;20066;-75
2022/01/10 02:25:22;;;;;;;69.85;25.30;;;;;;;8.88;95.58;98461.22;5052698;28;20041;-80
2022/01/10 02:27:48;;;;;;;71.72;26.02;;;;;;;8.89;95.21;98442.56;5059955;28;20375;-80
2022/01/10 02:30:13;;;;;;;80.93;28.13;;;;;;;8.60;96.34;98448.66;5059075;28;20020;-80
2022/01/10 02:32:39;;;;;;;69.75;27.38;;;;;;;8.69;96.25;98438.00;5061511;28;20067;-80
2022/01/10 02:35:05;;;;;;;70.68;27.10;;;;;;;8.73;96.57;98447.19;5052125;28;20032;-80
2022/01/10 02:37:35;;;;;;;78.15;26.77;;;;;;;8.80;96.05;98441.00;5060105;28;20028;-80
2022/01/10 02:40:06;;;;;;;68.32;25.85;;;;;;;8.78;97.08;98434.28;5056896;28;20307;-80
2022/01/10 02:42:32;;;;;;;67.68;26.70;;;;;;;9.00;95.14;98435.19;5045186;28;20037;-75
2022/01/10 02:44:58;;;;;;;64.63;24.88;;;;;;;9.07;94.42;98441.34;5042042;28;20049;-75
2022/01/10 02:47:27;;;;;;;77.07;27.55;;;;;;;8.92;94.71;98425.53;5039359;28;20068;-80
2022/01/10 02:49:53;;;;;;;65.75;26.50;;;;;;;8.83;95.62;98426.63;5042576;28;20272;-75
2022/01/10 02:52:18;;;;;;;71.55;26.90;;;;;;;9.03;95.64;98435.63;5042759;28;20037;-75
2022/01/10 02:54:44;;;;;;;77.57;27.90;;;;;;;9.07;95.42;98433.44;5041287;28;20041;-80
2022/01/10 02:57:10;;;;;;;65.93;26.33;;;;;;;9.23;94.38;98444.59;5053204;28;20045;-80
2022/01/10 02:59:37;;;;;;;68.30;27.00;;;;;;;9.26;94.81;98443.41;5050313;28;20404;-80
2022/01/10 03:02:03;;;;;;;67.57;25.55;;;;;;;9.40;93.58;98442.59;5051487;28;20319;-80
2022/01/10 03:04:28;;;;;;;62.53;25.65;;;;;;;9.41;93.37;98446.88;5044578;28;20044;-80
2022/01/10 03:06:54;;;;;;;66.03;24.65;;;;;;;9.44;92.44;98432.47;5053172;28;20033;-75
2022/01/10 03:09:19;;;;;;;61.50;25.00;;;;;;;9.60;90.63;98441.00;5046778;28;20029;-75
2022/01/10 03:11:45;;;;;;;61.25;25.08;;;;;;;9.37;91.99;98423.66;5049213;28;20041;-80
2022/01/10 03:14:14;;;;;;;58.42;23.63;;;;;;;9.19;92.75;98416.13;5060565;28;20033;-78
2022/01/10 03:16:40;;;;;;;59.10;23.92;;;;;;;9.18;93.46;98443.53;5055272;28;20029;-75
2022/01/10 03:19:05;;;;;;;61.25;24.40;;;;;;;9.27;93.13;98439.78;5059245;28;20029;-81
2022/01/10 03:21:31;;;;;;;59.03;24.25;;;;;;;9.15;93.05;98438.63;5061269;28;20308;-80
2022/01/10 03:23:59;;;;;;;66.93;24.10;;;;;;;9.14;93.44;98443.06;5058575;28;20025;-74
2022/01/10 03:26:26;;;;;;;63.10;24.38;;;;;;;8.91;94.47;98426.53;5052764;28;20299;-78
2022/01/10 03:28:52;;;;;;;74.35;26.27;;;;;;;8.80;94.84;98437.56;5051320;28;20029;-80
2022/01/10 03:31:18;;;;;;;66.88;24.98;;;;;;;8.73;96.75;98444.56;5041538;28;20021;-80
2022/01/10 03:33:44;;;;;;;73.38;27.77;;;;;;;8.81;96.12;98445.28;5050401;28;20029;-80
2022/01/10 03:36:10;;;;;;;70.95;26.42;;;;;;;8.73;96.10;98432.19;5055395;28;20078;-75
2022/01/10 03:38:35;;;;;;;67.75;25.15;;;;;;;8.83;95.93;98447.75;5058919;28;20021;-80
2022/01/10 03:41:01;;;;;;;73.80;24.90;;;;;;;8.71;96.60;98451.84;5055000;28;20036;-80
2022/01/10 03:43:26;;;;;;;68.43;24.98;;;;;;;8.59;96.82;98441.75;5046077;28;20029;-75
2022/01/10 03:45:52;;;;;;;72.80;26.70;;;;;;;8.59;97.73;98462.03;5041834;28;20109;-75
2022/01/10 03:48:18;;;;;;;76.15;25.63;;;;;;;8.52;98.67;98466.38;5040318;28;20036;-80
2022/01/10 03:50:44;;;;;;;70.70;25.13;;;;;;;8.63;98.19;98465.94;5040948;28;20033;-79
2022/01/10 03:53:09;;;;;;;72.38;27.23;;;;;;;8.37;98.20;98450.53;5039253;28;20025;-74
2022/01/10 03:55:35;;;;;;;81.07;28.77;;;;;;;8.31;99.69;98477.56;5040588;28;20037;-80
2022/01/10 03:58:00;;;;;;;74.88;27.50;;;;;;;8.33;100.00;98480.91;5043357;28;20029;-80
2022/01/10 04:00:26;;;;;;;68.82;25.60;;;;;;;8.44;99.89;98477.84;5056388;28;20130;-80
2022/01/10 04:02:57;;;;;;;68.75;25.25;;;;;;;8.52;99.38;98461.94;5053536;28;20032;-80
2022/01/10 04:05:23;;;;;;;74.03;27.20;;;;;;;8.60;99.34;98463.66;5047317;28;20333;-80
2022/01/10 04:07:48;;;;;;;70.15;26.92;;;;;;;8.78;98.37;98472.03;5043477;28;20104;-75
2022/01/10 04:10:14;;;;;;;72.85;27.25;;;;;;;8.89;97.12;98478.69;5043942;28;20032;-75
2022/01/10 04:12:39;;;;;;;64.40;25.58;;;;;;;8.88;96.55;98474.41;5044155;28;20033;-81
2022/01/10 04:15:05;;;;;;;76.22;26.38;;;;;;;8.76;97.10;98474.03;5044431;28;20053;-75
2022/01/10 04:17:31;;;;;;;68.97;25.92;;;;;;;8.87;97.78;98492.06;5043174;28;20075;-76
2022/01/10 04:19:56;;;;;;;68.15;26.77;;;;;;;8.82;96.63;98472.50;5043295;28;20056;-80
2022/01/10 04:22:22;;;;;;;68.53;27.23;;;;;;;8.89;96.54;98489.25;5049429;28;20065;-80
2022/01/10 04:24:47;;;;;;;68.32;26.85;;;;;;;8.57;97.00;98445.56;5055749;28;20343;-80
2022/01/10 04:27:13;;;;;;;66.75;26.40;;;;;;;8.74;97.13;98478.69;5060851;28;20041;-80
2022/01/10 04:29:39;;;;;;;67.38;25.80;;;;;;;8.72;97.76;98478.06;5063469;28;20302;-75
2022/01/10 04:32:05;;;;;;;72.55;26.27;;;;;;;8.92;97.88;98499.44;5055344;28;20056;-80
2022/01/10 04:34:30;;;;;;;69.55;28.08;;;;;;;9.27;95.09;98498.69;5052815;28;20035;-80
2022/01/10 04:36:56;;;;;;;70.50;26.92;;;;;;;9.19;95.26;98498.81;5043529;28;20087;-80
2022/01/10 04:39:22;;;;;;;79.25;27.35;;;;;;;9.16;96.22;98495.72;5043188;28;20178;-80
2022/01/10 04:41:47;;;;;;;72.82;27.33;;;;;;;9.22;95.09;98502.91;5044823;28;20087;-75
2022/01/10 04:44:13;;;;;;;68.13;26.98;;;;;;;9.31;94.61;98498.34;5044062;28;20032;-75
2022/01/10 04:46:39;;;;;;;73.38;26.80;;;;;;;9.27;95.41;98505.81;5044560;28;20029;-80
2022/01/10 04:49:06;;;;;;;80.78;27.75;;;;;;;9.25;95.36;98506.00;5044756;28;20045;-80
2022/01/10 04:51:32;;;;;;;78.97;26.70;;;;;;;9.34;94.44;98500.59;5043534;28;20223;-75
2022/01/10 04:53:58;;;;;;;75.85;27.75;;;;;;;9.29;94.30;98499.34;5050528;28;20028;-80
2022/01/10 04:56:23;;;;;;;71.30;26.67;;;;;;;9.26;94.33;98497.06;5063392;28;20243;-80
2022/01/10 04:58:50;;;;;;;71.45;26.20;;;;;;;9.03;95.57;98490.25;5058162;28;20111;-80
2022/01/10 05:01:17;;;;;;;77.60;26.38;;;;;;;9.07;95.96;98507.38;5056070;28;20053;-80
2022/01/10 05:03:43;;;;;;;71.90;26.65;;;;;;;9.01;97.01;98503.63;5041412;28;20053;-80
2022/01/10 05:06:08;;;;;;;72.53;25.88;;;;;;;9.11;96.51;98503.34;5043927;28;20076;-75
2022/01/10 05:08:34;;;;;;;66.43;22.58;;;;;;;9.10;95.95;98499.91;5047127;28;20219;-75
2022/01/10 05:11:00;;;;;;;67.50;25.35;;;;;;;9.06;95.81;98500.44;5064314;28;20235;-80
2022/01/10 05:13:26;;;;;;;66.32;25.17;;;;;;;9.04;96.82;98508.56;5056811;28;20025;-80
2022/01/10 05:15:52;;;;;;;56.90;22.40;;;;;;;9.12;96.28;98510.28;5061564;28;20511;-75
2022/01/10 05:18:20;;;;;;;63.60;23.17;;;;;;;9.16;96.07;98516.84;5062701;28;20316;-80
2022/01/10 05:20:46;;;;;;;58.22;23.55;;;;;;;9.10;97.03;98518.38;5060153;28;20025;-80
2022/01/10 05:23:12;;;;;;;58.08;22.25;;;;;;;9.13;97.15;98514.56;5044469;28;20033;-80
2022/01/10 05:25:40;;;;;;;56.60;21.85;;;;;;;9.19;97.02;98500.63;5047362;28;20070;-75
2022/01/10 05:28:07;;;;;;;53.20;21.30;;;;;;;9.46;94.69;98520.31;5063703;28;20092;-80
2022/01/10 05:30:33;;;;;;;53.50;21.75;;;;;;;9.34;95.30;98524.38;5059212;28;20056;-80
2022/01/10 05:32:58;;;;;;;58.30;23.25;;;;;;;9.39;94.98;98522.84;5062600;28;20307;-80
2022/01/10 05:35:24;;;;;;;57.90;22.48;;;;;;;9.28;94.91;98516.19;5059551;28;20037;-80
2022/01/10 05:37:49;;;;;;;57.53;23.33;;;;;;;9.23;95.68;98517.75;5056908;28;20042;-80
2022/01/10 05:40:15;;;;;;;60.28;23.23;;;;;;;9.19;96.59;98527.84;5042253;28;20021;-75
2022/01/10 05:42:41;;;;;;;61.97;25.10;;;;;;;9.05;97.56;98530.50;5043318;28;20096;-75
2022/01/10 05:45:07;;;;;;;65.50;26.02;;;;;;;8.86;98.84;98537.94;5042377;28;20024;-80
2022/01/10 05:47:39;;;;;;;76.20;29.48;;;;;;;8.81;98.83;98532.41;5043480;28;20077;-75
2022/01/10 05:50:06;;;;;;;79.65;31.48;;;;;;;8.85;98.79;98535.50;5043365;28;20028;-75
2022/01/10 05:52:32;;;;;;;75.85;31.95;;;;;;;8.88;99.44;98550.97;5042044;28;20025;-80
2022/01/10 05:54:57;;;;;;;77.18;33.38;;;;;;;8.83;100.00;98545.41;5041713;28;20076;-80
2022/01/10 05:57:23;;;;;;;85.88;34.67;;;;;;;8.69;100.00;98539.09;5043136;28;20044;-80
2022/01/10 05:59:48;;;;;;;95.72;37.08;;;;;;;9.00;99.70;98552.16;5043277;28;20477;-75
2022/01/10 06:02:14;;;;;;;86.97;35.67;;;;;;;9.02;99.03;98546.69;5043290;28;20211;-80
2022/01/10 06:04:39;;;;;;;78.30;32.17;;;;;;;8.75;100.00;98546.31;5043188;28;20029;-80
2022/01/10 06:07:05;;;;;;;70.43;30.02;;;;;;;8.70;100.00;98546.03;5042892;28;20272;-80
2022/01/10 06:09:30;;;;;;;71.78;28.73;;;;;;;8.78;100.00;98545.94;5043177;28;20045;-80
2022/01/10 06:11:55;;;;;;;75.78;30.15;;;;;;;8.66;100.00;98559.75;5041678;28;20041;-75
2022/01/10 06:14:21;;;;;;;74.35;29.98;;;;;;;9.06;100.00;98558.53;5042864;28;20222;-75
2022/01/10 06:16:46;;;;;;;75.05;29.02;;;;;;;9.07;100.00;98550.44;5042796;28;20426;-80
2022/01/10 06:19:12;;;;;;;63.95;28.00;;;;;;;9.09;100.00;98559.00;5042776;28;20079;-75
2022/01/10 06:21:37;;;;;;;65.70;26.88;;;;;;;9.19;100.00;98561.38;5042314;28;20324;-75
2022/01/10 06:24:03;;;;;;;66.47;27.15;;;;;;;9.08;100.00;98565.28;5041226;28;20033;-80
2022/01/10 06:26:28;;;;;;;59.78;25.48;;;;;;;9.28;100.00;98566.38;5045050;28;20136;-80
2022/01/10 06:28:54;;;;;;;63.28;25.75;;;;;;;9.23;99.65;98568.75;5054231;28;20195;-80
2022/01/10 06:31:19;;;;;;;75.57;32.85;;;;;;;9.16;99.91;98556.44;5061050;28;20037;-80
2022/01/10 06:33:45;;;;;;;74.20;32.35;;;;;;;9.35;98.94;98566.47;5053287;28;20032;-75
2022/01/10 06:36:10;;;;;;;88.85;34.50;;;;;;;8.95;100.00;98568.53;5053305;28;20097;-80
2022/01/10 06:38:36;;;;;;;91.30;33.45;;;;;;;8.61;100.00;98584.03;5041771;28;20041;-80
2022/01/10 06:41:02;;;;;;;85.20;35.17;;;;;;;8.68;100.00;98578.88;5039795;28;20032;-80
2022/01/10 06:43:27;;;;;;;87.25;34.28;;;;;;;8.43;100.00;98581.72;5044269;28;20021;-80
2022/01/10 06:48:28;;;;;;;97.28;37.45;;;;;;;8.37;100.00;98582.41;5093749;22;20061;-76
2022/01/10 06:50:54;;;;;;;114.35;44.85;;;;;;;8.28;100.00;98584.22;5035156;28;20037;-77
2022/01/10 06:53:20;;;;;;;108.88;43.53;;;;;;;8.20;100.00;98586.09;5036098;28;20026;-77
2022/01/10 06:55:46;;;;;;;106.40;42.50;;;;;;;8.06;100.00;98571.84;5034691;28;20029;-76
2022/01/10 06:58:13;;;;;;;99.45;39.50;;;;;;;8.36;100.00;98579.94;5034822;28;20075;-78
2022/01/10 07:00:38;;;;;;;116.38;42.58;;;;;;;8.47;100.00;98590.09;5036152;28;20214;-75
2022/01/10 07:03:04;;;;;;;109.85;42.28;;;;;;;8.70;100.00;98590.06;5034200;28;20076;-75
2022/01/10 07:05:29;;;;;;;97.28;36.53;;;;;;;8.78;100.00;98588.19;5035383;28;20036;-78
2022/01/10 07:07:55;;;;;;;83.10;32.25;;;;;;;8.74;100.00;98546.50;5035509;28;20030;-74
2022/01/10 07:10:21;;;;;;;78.90;31.65;;;;;;;9.06;100.00;98566.47;5040987;28;20029;-74
2022/01/10 07:12:46;;;;;;;89.10;32.08;;;;;;;9.20;100.00;98582.31;5038936;28;20097;-75
2022/01/10 07:15:12;;;;;;;76.78;30.20;;;;;;;9.47;100.00;98583.53;5034998;28;20272;-74
2022/01/10 07:17:37;;;;;;;73.75;30.15;;;;;;;9.51;100.00;98584.81;5034856;28;20219;-80
2022/01/10 07:20:05;;;;;;;64.45;26.05;;;;;;;9.52;100.00;98573.22;5036465;28;20333;-75
2022/01/10 07:22:30;;;;;;;65.00;26.45;;;;;;;9.75;99.63;98588.97;5035749;28;20095;-74
2022/01/10 07:24:56;;;;;;;60.38;27.80;;;;;;;9.79;98.84;98592.88;5033931;28;20030;-75
2022/01/10 07:27:21;;;;;;;63.78;28.10;;;;;;;9.87;98.22;98592.78;5037555;28;20033;-74
2022/01/10 07:29:49;;;;;;;66.93;29.27;;;;;;;9.66;98.99;98589.25;5040722;28;20033;-74
2022/01/10 07:32:15;;;;;;;74.28;27.15;;;;;;;9.32;100.00;98603.00;5040179;28;20036;-80
2022/01/10 07:34:40;;;;;;;79.82;32.10;;;;;;;9.48;100.00;98598.38;5046218;28;20025;-75
2022/01/10 07:37:06;;;;;;;84.70;32.78;;;;;;;9.39;100.00;98602.13;5039757;28;20060;-75
2022/01/10 07:39:31;;;;;;;88.35;34.22;;;;;;;9.40;100.00;98603.75;5039045;28;20115;-77
2022/01/10 07:41:57;;;;;;;84.50;34.42;;;;;;;9.38;100.00;98603.13;5026646;28;20029;-75
2022/01/10 07:44:22;;;;;;;91.97;36.72;;;;;;;8.99;100.00;98603.31;5035319;28;20037;-82
2022/01/10 07:46:48;;;;;;;97.10;37.75;;;;;;;8.91;100.00;98595.50;5039531;28;20037;-76
2022/01/10 07:49:13;;;;;;;87.93;35.67;;;;;;;8.92;100.00;98597.13;5040215;28;20246;-74
2022/01/10 07:51:38;;;;;;;94.22;37.45;;;;;;;8.98;100.00;98606.16;5038704;28;20021;-76
2022/01/10 07:54:04;;;;;;;99.15;41.42;;;;;;;9.22;100.00;98612.00;5040424;28;20341;-77
2022/01/10 07:56:29;;;;;;;100.95;39.15;;;;;;;9.22;100.00;98609.38;5038037;28;20037;-76
2022/01/10 07:58:56;;;;;;;95.55;38.97;;;;;;;9.16;100.00;98611.91;5039175;28;20030;-77
2022/01/10 08:01:22;;;;;;;101.75;40.13;;;;;;;9.13;100.00;98607.00;5037638;28;20021;-81
2022/01/10 08:03:50;;;;;;;97.50;40.75;;;;;;;9.03;100.00;98606.44;5040548;28;20033;-78
2022/01/10 08:06:17;;;;;;;108.38;41.15;;;;;;;9.07;100.00;98603.25;5043729;28;20021;-81
2022/01/10 08:08:42;;;;;;;96.63;38.65;;;;;;;8.87;100.00;98624.06;5043745;28;20041;-81
2022/01/10 08:11:08;;;;;;;85.40;33.95;;;;;;;8.79;100.00;98612.75;5043620;28;20234;-82
2022/01/10 08:13:33;;;;;;;81.95;33.45;;;;;;;8.90;100.00;98623.69;5043638;28;20030;-76
2022/01/10 08:15:59;;;;;;;73.70;27.58;;;;;;;8.76;100.00;98610.47;5042492;28;20257;-80
2022/01/10 08:18:24;;;;;;;71.40;27.65;;;;;;;8.70;100.00;98629.66;5043053;28;20042;-77
2022/01/10 08:20:50;;;;;;;77.47;28.58;;;;;;;8.69;100.00;98628.84;5044115;28;20095;-81
2022/01/10 08:23:15;;;;;;;73.10;27.45;;;;;;;8.60;100.00;98624.63;5044436;28;20056;-78
2022/01/10 08:25:41;;;;;;;70.47;26.65;;;;;;;8.80;100.00;98628.41;5042101;28;20039;-77
2022/01/10 08:28:07;;;;;;;78.60;30.70;;;;;;;8.64;100.00;98624.09;5043363;28;20040;-80
2022/01/10 08:30:33;;;;;;;68.50;25.75;;;;;;;8.62;100.00;98620.81;5042907;28;20084;-81
2022/01/10 08:32:58;;;;;;;69.35;26.65;;;;;;;8.68;100.00;98626.38;5042420;28;20034;-77
2022/01/10 08:35:24;;;;;;;74.05;28.35;;;;;;;8.54;100.00;98620.03;5043269;28;20093;-77
2022/01/10 08:37:50;;;;;;;72.45;26.90;;;;;;;8.54;100.00;98612.94;5042941;28;20041;-81
2022/01/10 08:40:15;;;;;;;67.63;26.33;;;;;;;8.37;100.00;98615.88;5042959;28;20037;-81
2022/01/10 08:42:41;;;;;;;65.88;25.10;;;;;;;8.42;100.00;98627.56;5041026;28;20032;-76
2022/01/10 08:45:08;;;;;;;61.40;22.90;;;;;;;8.39;100.00;98608.63;5041940;28;20032;-77
2022/01/10 08:47:35;;;;;;;59.90;23.27;;;;;;;8.50;100.00;98621.41;5040772;28;20044;-77
2022/01/10 08:50:01;;;;;;;51.35;21.95;;;;;;;8.29;100.00;98620.16;5042510;28;20084;-77
2022/01/10 08:52:26;;;;;;;61.45;23.27;;;;;;;8.40;100.00;98624.25;5042586;28;20412;-81
2022/01/10 08:54:51;;;;;;;56.17;22.65;;;;;;;8.27;100.00;98600.22;5042440;28;20048;-77
2022/01/10 08:57:18;;;;;;;62.13;22.73;;;;;;;8.36;100.00;98612.44;5058780;28;20020;-77
2022/01/10 08:59:44;;;;;;;59.08;22.50;;;;;;;8.30;100.00;98615.69;5062034;28;20021;-81
2022/01/10 09:02:12;;;;;;;63.17;23.52;;;;;;;8.25;100.00;98615.41;5061522;28;20337;-77
2022/01/10 09:04:39;;;;;;;65.35;23.77;;;;;;;8.40;100.00;98604.97;5052218;28;20092;-77
2022/01/10 09:07:08;;;;;;;58.65;23.48;;;;;;;8.48;100.00;98612.84;5042268;28;20052;-81
2022/01/10 09:09:34;;;;;;;63.38;22.42;;;;;;;8.24;100.00;98609.31;5042003;28;20048;-76
2022/01/10 09:12:00;;;;;;;53.90;21.92;;;;;;;8.28;100.00;98612.41;5041874;28;20033;-77
2022/01/10 09:14:25;;;;;;;55.60;22.40;;;;;;;8.15;100.00;98594.53;5040840;28;20028;-81
2022/01/10 09:16:51;;;;;;;55.03;20.95;;;;;;;8.32;100.00;98613.72;5041653;28;20305;-77
2022/01/10 09:19:16;;;;;;;49.78;20.23;;;;;;;8.32;100.00;98613.72;5040725;28;20066;-77
2022/01/10 09:21:42;;;;;;;53.83;21.08;;;;;;;8.30;100.00;98605.97;5041893;28;20052;-81
2022/01/10 09:24:07;;;;;;;50.33;20.27;;;;;;;8.26;100.00;98596.78;5040652;28;20017;-76
2022/01/10 09:26:33;;;;;;;58.30;21.60;;;;;;;8.31;100.00;98604.97;5040426;28;20352;-77
2022/01/10 09:28:59;;;;;;;45.00;19.08;;;;;;;8.42;100.00;98606.44;5040082;28;20044;-81
2022/01/10 09:31:25;;;;;;;48.75;19.33;;;;;;;8.39;100.00;98601.53;5045356;28;20037;-76
2022/01/10 09:33:54;;;;;;;48.63;18.75;;;;;;;8.28;100.00;98592.13;5041900;28;20107;-81
2022/01/10 09:36:22;;;;;;;44.33;18.55;;;;;;;8.42;100.00;98605.63;5041269;28;20029;-81
2022/01/10 09:38:48;;;;;;;45.67;18.67;;;;;;;8.33;100.00;98607.50;5041185;28;20033;-77
2022/01/10 09:41:13;;;;;;;40.88;18.00;;;;;;;8.35;100.00;98604.69;5059176;28;20191;-77
2022/01/10 09:43:47;;;;;;;48.35;19.77;;;;;;;8.39;100.00;98600.69;5059817;28;20092;-76
2022/01/10 09:46:13;;;;;;;41.88;18.23;;;;;;;8.32;100.00;98592.59;5060921;28;20107;-76
2022/01/10 09:48:38;;;;;;;54.92;18.92;;;;;;;8.38;100.00;98609.63;5039781;28;20342;-80
2022/01/10 09:51:04;;;;;;;43.85;17.13;;;;;;;8.48;100.00;98602.28;5040158;28;20056;-77
2022/01/10 09:53:30;;;;;;;36.47;13.43;;;;;;;8.47;100.00;98596.19;5040827;28;20021;-80
2022/01/10 09:55:55;;;;;;;39.13;14.95;;;;;;;8.40;100.00;98589.97;5040223;28;20037;-80
2022/01/10 09:58:22;;;;;;;27.58;13.23;;;;;;;8.59;100.00;98597.41;5041152;28;20034;-77
2022/01/10 10:00:48;;;;;;;32.40;13.63;;;;;;;8.40;100.00;98584.69;5041177;28;20045;-76
2022/01/10 10:03:13;;;;;;;28.58;13.82;;;;;;;8.46;100.00;98583.19;5039871;28;20032;-81
2022/01/10 10:05:42;;;;;;;28.35;12.18;;;;;;;8.43;100.00;98599.34;5041155;28;20037;-78
2022/01/10 10:08:08;;;;;;;25.77;11.95;;;;;;;8.53;100.00;98595.47;5039304;28;20273;-77
2022/01/10 10:10:34;;;;;;;32.15;14.70;;;;;;;8.58;100.00;98600.22;5040882;28;20032;-78
2022/01/10 10:13:00;;;;;;;29.67;12.73;;;;;;;8.51;100.00;98586.91;5040705;28;20144;-77
2022/01/10 10:15:30;;;;;;;26.55;11.02;;;;;;;8.40;100.00;98574.16;5040495;28;20056;-80
2022/01/10 10:17:56;;;;;;;30.92;13.05;;;;;;;8.48;100.00;98591.72;5040405;28;20208;-76
2022/01/10 10:20:23;;;;;;;31.65;13.13;;;;;;;8.55;100.00;98584.75;5040691;28;20040;-77
2022/01/10 10:22:52;;;;;;;27.48;12.25;;;;;;;8.28;100.00;98549.13;5039554;28;20017;-80
2022/01/10 10:25:18;;;;;;;28.90;13.43;;;;;;;8.65;100.00;98590.59;5039576;28;20602;-77
2022/01/10 10:27:46;;;;;;;26.77;12.77;;;;;;;8.56;100.00;98595.13;5039498;28;20289;-77
2022/01/10 10:30:15;;;;;;;29.75;13.38;;;;;;;8.66;100.00;98584.31;5039740;28;20049;-76
2022/01/10 10:32:41;;;;;;;29.27;12.82;;;;;;;8.71;100.00;98589.06;5041246;28;20038;-77
2022/01/10 10:35:08;;;;;;;30.70;13.70;;;;;;;8.53;100.00;98578.81;5039212;28;20230;-81
2022/01/10 10:37:42;;;;;;;30.85;13.48;;;;;;;8.53;100.00;98590.19;5040669;28;20047;-81
2022/01/10 10:40:10;;;;;;;33.75;13.95;;;;;;;8.64;100.00;98596.88;5040496;28;20211;-77
2022/01/10 10:42:38;;;;;;;32.75;14.18;;;;;;;8.45;100.00;98569.16;5040531;28;20115;-77
2022/01/10 10:45:09;;;;;;;33.75;14.77;;;;;;;8.60;100.00;98580.59;5040287;28;20029;-81
2022/01/10 10:47:42;;;;;;;35.15;15.88;;;;;;;8.67;100.00;98585.16;5038659;28;20045;-77
2022/01/10 10:50:08;;;;;;;38.70;17.08;;;;;;;8.53;100.00;98584.94;5040384;28;20021;-77
2022/01/10 10:52:36;;;;;;;43.03;17.50;;;;;;;8.62;100.00;98583.88;5040486;28;20093;-77
2022/01/10 10:55:08;;;;;;;35.60;15.85;;;;;;;8.70;100.00;98584.78;5040191;28;20368;-77
2022/01/10 10:57:35;;;;;;;38.20;16.17;;;;;;;8.59;100.00;98581.56;5040309;28;20092;-77
2022/01/10 11:00:09;;;;;;;37.40;15.35;;;;;;;8.47;100.00;98582.19;5039134;28;20033;-78
2022/01/10 11:02:34;;;;;;;40.72;16.52;;;;;;;8.49;100.00;98581.00;5041170;28;20097;-77
2022/01/10 11:05:03;;;;;;;39.65;16.23;;;;;;;8.52;100.00;98572.72;5039611;28;20033;-78
2022/01/10 11:07:32;;;;;;;40.15;17.73;;;;;;;8.76;100.00;98587.53;5034338;28;20030;-77
2022/01/10 11:09:58;;;;;;;40.90;17.10;;;;;;;8.76;100.00;98586.72;5035690;28;20036;-77
2022/01/10 11:12:24;;;;;;;38.95;16.92;;;;;;;8.71;100.00;98592.53;5036156;28;20237;-77
2022/01/10 11:14:52;;;;;;;44.00;18.63;;;;;;;8.64;100.00;98588.97;5034548;28;20373;-82
2022/01/10 11:17:21;;;;;;;38.53;16.65;;;;;;;8.71;100.00;98591.72;5034781;28;20048;-77
2022/01/10 11:20:08;;;;;;;44.72;17.05;;;;;;;8.68;100.00;98592.88;5036107;28;20025;-77
2022/01/10 11:22:38;;;;;;;43.08;16.88;;;;;;;8.70;100.00;98582.97;5035414;28;20337;-82
2022/01/10 11:25:03;;;;;;;41.92;18.38;;;;;;;8.76;100.00;98570.88;5036208;28;20083;-81
2022/01/10 11:27:34;;;;;;;40.03;16.83;;;;;;;8.73;100.00;98581.78;5034116;28;20263;-76
2022/01/10 11:30:20;;;;;;;36.92;15.85;;;;;;;8.77;100.00;98575.16;5036035;28;20014;-81